sensor_id;sensor_type;location;lat;lon;timestamp;P1;durP1;ratioP1;P2;durP2;ratioP2
66886;SDS011;67239;51.680;5.976;2023-08-17T00:00:03;2.28;;;1.45;;
66886;SDS011;67239;51.680;5.976;2023-08-17T00:02:35;2.88;;;1.27;;
66886;SDS011;67239;51.680;5.976;2023-08-17T00:05:02;2.47;;;1.38;;
66886;SDS011;67239;51.680;5.976;2023-08-17T00:07:29;3.05;;;1.48;;
66886;SDS011;67239;51.680;5.976;2023-08-17T00:09:56;3.70;;;1.40;;
66886;SDS011;67239;51.680;5.976;2023-08-17T00:12:24;2.88;;;1.45;;
66886;SDS011;67239;51.680;5.976;2023-08-17T00:14:52;3.97;;;1.27;;
66886;SDS011;67239;51.680;5.976;2023-08-17T00:17:20;2.70;;;1.23;;
66886;SDS011;67239;51.680;5.976;2023-08-17T00:19:49;2.50;;;1.08;;
66886;SDS011;67239;51.680;5.976;2023-08-17T00:22:16;1.92;;;1.13;;
66886;SDS011;67239;51.680;5.976;2023-08-17T00:24:43;2.33;;;1.23;;
66886;SDS011;67239;51.680;5.976;2023-08-17T00:27:11;2.47;;;1.10;;
66886;SDS011;67239;51.680;5.976;2023-08-17T00:29:38;3.83;;;1.20;;
66886;SDS011;67239;51.680;5.976;2023-08-17T00:32:06;2.70;;;1.30;;
66886;SDS011;67239;51.680;5.976;2023-08-17T00:34:35;4.40;;;1.23;;
66886;SDS011;67239;51.680;5.976;2023-08-17T00:37:02;3.42;;;1.20;;
66886;SDS011;67239;51.680;5.976;2023-08-17T00:39:30;2.58;;;1.00;;
66886;SDS011;67239;51.680;5.976;2023-08-17T00:41:57;3.03;;;1.23;;
66886;SDS011;67239;51.680;5.976;2023-08-17T00:44:24;2.70;;;1.27;;
66886;SDS011;67239;51.680;5.976;2023-08-17T00:46:51;6.00;;;1.25;;
66886;SDS011;67239;51.680;5.976;2023-08-17T00:49:18;3.05;;;1.20;;
66886;SDS011;67239;51.680;5.976;2023-08-17T00:51:45;5.00;;;1.33;;
66886;SDS011;67239;51.680;5.976;2023-08-17T00:54:13;3.85;;;1.50;;
66886;SDS011;67239;51.680;5.976;2023-08-17T00:56:49;4.43;;;1.13;;
66886;SDS011;67239;51.680;5.976;2023-08-17T00:59:18;3.08;;;1.30;;
66886;SDS011;67239;51.680;5.976;2023-08-17T01:01:46;3.80;;;1.20;;
66886;SDS011;67239;51.680;5.976;2023-08-17T01:04:14;3.55;;;1.30;;
66886;SDS011;67239;51.680;5.976;2023-08-17T01:06:41;3.38;;;1.38;;
66886;SDS011;67239;51.680;5.976;2023-08-17T01:09:08;5.30;;;1.55;;
66886;SDS011;67239;51.680;5.976;2023-08-17T01:11:37;4.20;;;1.50;;
66886;SDS011;67239;51.680;5.976;2023-08-17T01:14:14;3.05;;;1.52;;
66886;SDS011;67239;51.680;5.976;2023-08-17T01:17:03;2.28;;;1.30;;
66886;SDS011;67239;51.680;5.976;2023-08-17T01:19:52;5.88;;;1.50;;
66886;SDS011;67239;51.680;5.976;2023-08-17T01:22:21;4.07;;;1.50;;
66886;SDS011;67239;51.680;5.976;2023-08-17T01:24:49;4.93;;;1.58;;
66886;SDS011;67239;51.680;5.976;2023-08-17T01:27:17;3.20;;;1.40;;
66886;SDS011;67239;51.680;5.976;2023-08-17T01:29:44;5.97;;;1.75;;
66886;SDS011;67239;51.680;5.976;2023-08-17T01:32:56;6.05;;;1.80;;
66886;SDS011;67239;51.680;5.976;2023-08-17T01:35:28;4.50;;;1.30;;
66886;SDS011;67239;51.680;5.976;2023-08-17T01:38:09;3.00;;;1.55;;
66886;SDS011;67239;51.680;5.976;2023-08-17T01:40:44;4.35;;;1.80;;
66886;SDS011;67239;51.680;5.976;2023-08-17T01:43:14;4.38;;;1.55;;
66886;SDS011;67239;51.680;5.976;2023-08-17T01:45:43;3.45;;;1.60;;
66886;SDS011;67239;51.680;5.976;2023-08-17T01:48:11;3.15;;;1.88;;
66886;SDS011;67239;51.680;5.976;2023-08-17T01:50:38;7.07;;;1.75;;
66886;SDS011;67239;51.680;5.976;2023-08-17T01:53:05;5.35;;;1.70;;
66886;SDS011;67239;51.680;5.976;2023-08-17T01:55:32;6.50;;;1.90;;
66886;SDS011;67239;51.680;5.976;2023-08-17T01:58:02;3.30;;;1.55;;
66886;SDS011;67239;51.680;5.976;2023-08-17T02:00:29;5.03;;;1.70;;
66886;SDS011;67239;51.680;5.976;2023-08-17T02:02:56;4.07;;;1.80;;
66886;SDS011;67239;51.680;5.976;2023-08-17T02:05:24;5.90;;;1.90;;
66886;SDS011;67239;51.680;5.976;2023-08-17T02:07:55;3.33;;;1.60;;
66886;SDS011;67239;51.680;5.976;2023-08-17T02:10:22;3.88;;;1.80;;
66886;SDS011;67239;51.680;5.976;2023-08-17T02:12:49;3.35;;;1.88;;
66886;SDS011;67239;51.680;5.976;2023-08-17T02:15:24;5.03;;;1.65;;
66886;SDS011;67239;51.680;5.976;2023-08-17T02:17:52;5.25;;;1.70;;
66886;SDS011;67239;51.680;5.976;2023-08-17T02:20:19;5.97;;;1.92;;
66886;SDS011;67239;51.680;5.976;2023-08-17T02:22:46;5.05;;;1.55;;
66886;SDS011;67239;51.680;5.976;2023-08-17T02:25:13;4.25;;;1.70;;
66886;SDS011;67239;51.680;5.976;2023-08-17T02:27:40;4.97;;;2.00;;
66886;SDS011;67239;51.680;5.976;2023-08-17T02:30:07;2.95;;;1.52;;
66886;SDS011;67239;51.680;5.976;2023-08-17T02:32:35;5.60;;;1.75;;
66886;SDS011;67239;51.680;5.976;2023-08-17T02:35:02;5.03;;;1.80;;
66886;SDS011;67239;51.680;5.976;2023-08-17T02:37:29;4.22;;;1.80;;
66886;SDS011;67239;51.680;5.976;2023-08-17T02:39:57;2.60;;;1.48;;
66886;SDS011;67239;51.680;5.976;2023-08-17T02:42:24;6.32;;;1.90;;
66886;SDS011;67239;51.680;5.976;2023-08-17T02:44:53;6.57;;;1.50;;
66886;SDS011;67239;51.680;5.976;2023-08-17T02:47:20;6.10;;;1.70;;
66886;SDS011;67239;51.680;5.976;2023-08-17T02:49:47;4.50;;;1.60;;
66886;SDS011;67239;51.680;5.976;2023-08-17T02:52:16;4.85;;;1.95;;
66886;SDS011;67239;51.680;5.976;2023-08-17T02:54:43;4.07;;;1.70;;
66886;SDS011;67239;51.680;5.976;2023-08-17T02:57:10;2.80;;;1.48;;
66886;SDS011;67239;51.680;5.976;2023-08-17T02:59:40;5.40;;;1.40;;
66886;SDS011;67239;51.680;5.976;2023-08-17T03:02:07;4.03;;;1.52;;
66886;SDS011;67239;51.680;5.976;2023-08-17T03:04:34;5.25;;;2.00;;
66886;SDS011;67239;51.680;5.976;2023-08-17T03:07:01;2.65;;;1.50;;
66886;SDS011;67239;51.680;5.976;2023-08-17T03:09:29;5.72;;;1.92;;
66886;SDS011;67239;51.680;5.976;2023-08-17T03:11:56;5.50;;;1.90;;
66886;SDS011;67239;51.680;5.976;2023-08-17T03:14:23;4.32;;;1.65;;
66886;SDS011;67239;51.680;5.976;2023-08-17T03:16:50;4.47;;;1.52;;
66886;SDS011;67239;51.680;5.976;2023-08-17T03:19:17;6.88;;;1.70;;
66886;SDS011;67239;51.680;5.976;2023-08-17T03:21:45;3.95;;;1.75;;
66886;SDS011;67239;51.680;5.976;2023-08-17T03:24:12;3.65;;;1.80;;
66886;SDS011;67239;51.680;5.976;2023-08-17T03:26:39;3.08;;;1.45;;
66886;SDS011;67239;51.680;5.976;2023-08-17T03:29:07;4.15;;;1.77;;
66886;SDS011;67239;51.680;5.976;2023-08-17T03:31:36;3.72;;;1.67;;
66886;SDS011;67239;51.680;5.976;2023-08-17T03:34:06;5.13;;;1.77;;
66886;SDS011;67239;51.680;5.976;2023-08-17T03:36:33;6.97;;;2.20;;
66886;SDS011;67239;51.680;5.976;2023-08-17T03:39:00;3.83;;;1.70;;
66886;SDS011;67239;51.680;5.976;2023-08-17T03:41:28;6.63;;;1.83;;
66886;SDS011;67239;51.680;5.976;2023-08-17T03:43:55;3.65;;;1.95;;
66886;SDS011;67239;51.680;5.976;2023-08-17T03:46:23;4.50;;;1.90;;
66886;SDS011;67239;51.680;5.976;2023-08-17T03:48:50;5.57;;;1.90;;
66886;SDS011;67239;51.680;5.976;2023-08-17T03:51:18;4.45;;;2.25;;
66886;SDS011;67239;51.680;5.976;2023-08-17T03:53:45;3.05;;;2.17;;
66886;SDS011;67239;51.680;5.976;2023-08-17T03:56:12;5.95;;;2.25;;
66886;SDS011;67239;51.680;5.976;2023-08-17T03:58:41;6.03;;;2.67;;
66886;SDS011;67239;51.680;5.976;2023-08-17T04:01:09;5.15;;;2.25;;
66886;SDS011;67239;51.680;5.976;2023-08-17T04:03:40;4.70;;;2.38;;
66886;SDS011;67239;51.680;5.976;2023-08-17T04:06:08;5.43;;;2.30;;
66886;SDS011;67239;51.680;5.976;2023-08-17T04:08:37;5.88;;;2.25;;
66886;SDS011;67239;51.680;5.976;2023-08-17T04:11:05;5.68;;;2.40;;
66886;SDS011;67239;51.680;5.976;2023-08-17T04:13:32;5.85;;;2.20;;
66886;SDS011;67239;51.680;5.976;2023-08-17T04:15:59;5.93;;;2.47;;
66886;SDS011;67239;51.680;5.976;2023-08-17T04:18:27;6.07;;;2.45;;
66886;SDS011;67239;51.680;5.976;2023-08-17T04:20:54;7.80;;;2.65;;
66886;SDS011;67239;51.680;5.976;2023-08-17T04:23:21;5.35;;;2.53;;
66886;SDS011;67239;51.680;5.976;2023-08-17T04:25:49;8.82;;;2.70;;
66886;SDS011;67239;51.680;5.976;2023-08-17T04:28:16;8.35;;;2.72;;
66886;SDS011;67239;51.680;5.976;2023-08-17T04:30:44;7.28;;;2.90;;
66886;SDS011;67239;51.680;5.976;2023-08-17T04:33:11;6.63;;;2.70;;
66886;SDS011;67239;51.680;5.976;2023-08-17T04:35:39;8.35;;;2.70;;
66886;SDS011;67239;51.680;5.976;2023-08-17T04:38:07;6.20;;;2.60;;
66886;SDS011;67239;51.680;5.976;2023-08-17T04:40:34;5.30;;;2.40;;
66886;SDS011;67239;51.680;5.976;2023-08-17T04:43:01;5.60;;;2.22;;
66886;SDS011;67239;51.680;5.976;2023-08-17T04:45:28;6.50;;;2.58;;
66886;SDS011;67239;51.680;5.976;2023-08-17T04:47:55;5.07;;;2.17;;
66886;SDS011;67239;51.680;5.976;2023-08-17T04:50:23;4.72;;;2.20;;
66886;SDS011;67239;51.680;5.976;2023-08-17T04:52:52;6.35;;;2.78;;
66886;SDS011;67239;51.680;5.976;2023-08-17T04:55:19;5.65;;;2.38;;
66886;SDS011;67239;51.680;5.976;2023-08-17T04:57:47;7.82;;;2.50;;
66886;SDS011;67239;51.680;5.976;2023-08-17T05:00:16;3.95;;;2.47;;
66886;SDS011;67239;51.680;5.976;2023-08-17T05:02:43;4.72;;;2.42;;
66886;SDS011;67239;51.680;5.976;2023-08-17T05:05:10;3.55;;;2.17;;
66886;SDS011;67239;51.680;5.976;2023-08-17T05:07:39;5.43;;;2.40;;
66886;SDS011;67239;51.680;5.976;2023-08-17T05:10:06;6.35;;;2.17;;
66886;SDS011;67239;51.680;5.976;2023-08-17T05:12:37;6.32;;;2.50;;
66886;SDS011;67239;51.680;5.976;2023-08-17T05:15:04;9.20;;;2.60;;
66886;SDS011;67239;51.680;5.976;2023-08-17T05:17:32;6.65;;;2.50;;
66886;SDS011;67239;51.680;5.976;2023-08-17T05:20:00;4.80;;;2.50;;
66886;SDS011;67239;51.680;5.976;2023-08-17T05:22:27;7.28;;;2.72;;
66886;SDS011;67239;51.680;5.976;2023-08-17T05:24:55;6.65;;;2.53;;
66886;SDS011;67239;51.680;5.976;2023-08-17T05:27:22;6.57;;;2.42;;
66886;SDS011;67239;51.680;5.976;2023-08-17T05:29:49;6.50;;;2.60;;
66886;SDS011;67239;51.680;5.976;2023-08-17T05:32:17;6.10;;;2.58;;
66886;SDS011;67239;51.680;5.976;2023-08-17T05:34:47;4.35;;;2.53;;
66886;SDS011;67239;51.680;5.976;2023-08-17T05:37:14;10.32;;;2.65;;
66886;SDS011;67239;51.680;5.976;2023-08-17T05:39:42;5.68;;;3.13;;
66886;SDS011;67239;51.680;5.976;2023-08-17T05:42:09;6.00;;;2.60;;
66886;SDS011;67239;51.680;5.976;2023-08-17T05:44:36;7.10;;;2.67;;
66886;SDS011;67239;51.680;5.976;2023-08-17T05:47:03;8.60;;;2.75;;
66886;SDS011;67239;51.680;5.976;2023-08-17T05:49:30;7.70;;;2.58;;
66886;SDS011;67239;51.680;5.976;2023-08-17T05:51:57;5.10;;;2.45;;
66886;SDS011;67239;51.680;5.976;2023-08-17T05:54:25;5.20;;;2.58;;
66886;SDS011;67239;51.680;5.976;2023-08-17T05:56:52;6.20;;;2.83;;
66886;SDS011;67239;51.680;5.976;2023-08-17T05:59:19;5.95;;;2.38;;
66886;SDS011;67239;51.680;5.976;2023-08-17T06:01:46;6.60;;;2.55;;
66886;SDS011;67239;51.680;5.976;2023-08-17T06:04:13;6.30;;;2.70;;
66886;SDS011;67239;51.680;5.976;2023-08-17T06:06:40;7.20;;;2.20;;
66886;SDS011;67239;51.680;5.976;2023-08-17T06:09:07;6.47;;;2.70;;
66886;SDS011;67239;51.680;5.976;2023-08-17T06:11:35;4.85;;;2.45;;
66886;SDS011;67239;51.680;5.976;2023-08-17T06:14:02;7.60;;;2.47;;
66886;SDS011;67239;51.680;5.976;2023-08-17T06:16:30;4.82;;;2.20;;
66886;SDS011;67239;51.680;5.976;2023-08-17T06:18:57;6.82;;;2.58;;
66886;SDS011;67239;51.680;5.976;2023-08-17T06:21:24;4.40;;;2.40;;
66886;SDS011;67239;51.680;5.976;2023-08-17T06:23:51;6.22;;;2.20;;
66886;SDS011;67239;51.680;5.976;2023-08-17T06:26:18;3.58;;;2.10;;
66886;SDS011;67239;51.680;5.976;2023-08-17T06:28:45;6.07;;;2.00;;
66886;SDS011;67239;51.680;5.976;2023-08-17T06:31:15;6.63;;;2.05;;
66886;SDS011;67239;51.680;5.976;2023-08-17T06:33:42;4.78;;;2.03;;
66886;SDS011;67239;51.680;5.976;2023-08-17T06:36:09;6.45;;;2.35;;
66886;SDS011;67239;51.680;5.976;2023-08-17T06:38:39;4.70;;;2.35;;
66886;SDS011;67239;51.680;5.976;2023-08-17T06:41:06;5.80;;;2.20;;
66886;SDS011;67239;51.680;5.976;2023-08-17T06:43:34;4.72;;;2.10;;
66886;SDS011;67239;51.680;5.976;2023-08-17T06:46:01;6.22;;;2.30;;
66886;SDS011;67239;51.680;5.976;2023-08-17T06:48:28;6.63;;;1.90;;
66886;SDS011;67239;51.680;5.976;2023-08-17T06:50:55;4.90;;;2.17;;
66886;SDS011;67239;51.680;5.976;2023-08-17T06:53:22;7.20;;;2.25;;
66886;SDS011;67239;51.680;5.976;2023-08-17T06:55:50;5.07;;;1.98;;
66886;SDS011;67239;51.680;5.976;2023-08-17T06:58:17;5.70;;;1.88;;
66886;SDS011;67239;51.680;5.976;2023-08-17T07:00:44;4.95;;;1.95;;
66886;SDS011;67239;51.680;5.976;2023-08-17T07:03:12;7.03;;;2.10;;
66886;SDS011;67239;51.680;5.976;2023-08-17T07:05:39;4.53;;;2.00;;
66886;SDS011;67239;51.680;5.976;2023-08-17T07:08:06;4.03;;;2.08;;
66886;SDS011;67239;51.680;5.976;2023-08-17T07:10:33;4.85;;;2.08;;
66886;SDS011;67239;51.680;5.976;2023-08-17T07:13:00;7.90;;;2.10;;
66886;SDS011;67239;51.680;5.976;2023-08-17T07:15:31;5.55;;;2.10;;
66886;SDS011;67239;51.680;5.976;2023-08-17T07:17:58;6.95;;;2.20;;
66886;SDS011;67239;51.680;5.976;2023-08-17T07:20:26;5.40;;;2.20;;
66886;SDS011;67239;51.680;5.976;2023-08-17T07:22:53;8.85;;;2.28;;
66886;SDS011;67239;51.680;5.976;2023-08-17T07:25:20;7.78;;;2.28;;
66886;SDS011;67239;51.680;5.976;2023-08-17T07:27:49;6.65;;;2.13;;
66886;SDS011;67239;51.680;5.976;2023-08-17T07:30:16;6.05;;;2.33;;
66886;SDS011;67239;51.680;5.976;2023-08-17T07:32:43;6.00;;;2.20;;
66886;SDS011;67239;51.680;5.976;2023-08-17T07:35:10;6.13;;;2.20;;
66886;SDS011;67239;51.680;5.976;2023-08-17T07:37:37;5.38;;;2.53;;
66886;SDS011;67239;51.680;5.976;2023-08-17T07:40:05;4.60;;;2.08;;
66886;SDS011;67239;51.680;5.976;2023-08-17T07:42:34;7.05;;;2.00;;
66886;SDS011;67239;51.680;5.976;2023-08-17T07:45:01;5.78;;;2.38;;
66886;SDS011;67239;51.680;5.976;2023-08-17T07:47:35;5.07;;;2.22;;
66886;SDS011;67239;51.680;5.976;2023-08-17T07:50:03;6.78;;;2.33;;
66886;SDS011;67239;51.680;5.976;2023-08-17T07:52:32;6.63;;;2.00;;
66886;SDS011;67239;51.680;5.976;2023-08-17T07:54:59;6.03;;;2.33;;
66886;SDS011;67239;51.680;5.976;2023-08-17T07:57:26;4.82;;;1.88;;
66886;SDS011;67239;51.680;5.976;2023-08-17T07:59:54;6.18;;;2.22;;
66886;SDS011;67239;51.680;5.976;2023-08-17T08:02:21;6.07;;;2.47;;
66886;SDS011;67239;51.680;5.976;2023-08-17T08:04:48;4.45;;;2.30;;
66886;SDS011;67239;51.680;5.976;2023-08-17T08:07:15;5.43;;;2.10;;
66886;SDS011;67239;51.680;5.976;2023-08-17T08:09:42;4.22;;;2.25;;
66886;SDS011;67239;51.680;5.976;2023-08-17T08:12:10;4.53;;;2.08;;
66886;SDS011;67239;51.680;5.976;2023-08-17T08:14:37;5.88;;;2.22;;
66886;SDS011;67239;51.680;5.976;2023-08-17T08:17:04;4.72;;;2.17;;
66886;SDS011;67239;51.680;5.976;2023-08-17T08:19:31;8.80;;;2.83;;
66886;SDS011;67239;51.680;5.976;2023-08-17T08:21:59;4.53;;;2.53;;
66886;SDS011;67239;51.680;5.976;2023-08-17T08:24:26;4.85;;;2.40;;
66886;SDS011;67239;51.680;5.976;2023-08-17T08:29:28;6.63;;;2.30;;
66886;SDS011;67239;51.680;5.976;2023-08-17T08:31:55;6.78;;;2.90;;
66886;SDS011;67239;51.680;5.976;2023-08-17T08:34:24;5.10;;;2.42;;
66886;SDS011;67239;51.680;5.976;2023-08-17T08:36:51;6.22;;;2.53;;
66886;SDS011;67239;51.680;5.976;2023-08-17T08:39:18;5.95;;;2.67;;
66886;SDS011;67239;51.680;5.976;2023-08-17T08:41:45;5.03;;;2.47;;
66886;SDS011;67239;51.680;5.976;2023-08-17T08:44:12;8.00;;;3.17;;
66886;SDS011;67239;51.680;5.976;2023-08-17T08:46:40;10.27;;;3.10;;
66886;SDS011;67239;51.680;5.976;2023-08-17T08:49:10;8.45;;;3.30;;
66886;SDS011;67239;51.680;5.976;2023-08-17T08:51:41;5.53;;;3.03;;
66886;SDS011;67239;51.680;5.976;2023-08-17T08:54:13;6.50;;;3.60;;
66886;SDS011;67239;51.680;5.976;2023-08-17T08:56:53;9.25;;;3.60;;
66886;SDS011;67239;51.680;5.976;2023-08-17T08:59:28;13.48;;;4.45;;
66886;SDS011;67239;51.680;5.976;2023-08-17T09:01:56;8.68;;;3.78;;
66886;SDS011;67239;51.680;5.976;2023-08-17T09:04:25;11.30;;;4.20;;
66886;SDS011;67239;51.680;5.976;2023-08-17T09:06:53;8.45;;;3.85;;
66886;SDS011;67239;51.680;5.976;2023-08-17T09:09:22;10.50;;;4.05;;
66886;SDS011;67239;51.680;5.976;2023-08-17T09:11:55;8.77;;;3.97;;
66886;SDS011;67239;51.680;5.976;2023-08-17T09:14:23;12.27;;;4.15;;
66886;SDS011;67239;51.680;5.976;2023-08-17T09:16:50;13.38;;;4.32;;
66886;SDS011;67239;51.680;5.976;2023-08-17T09:19:18;11.38;;;4.80;;
66886;SDS011;67239;51.680;5.976;2023-08-17T09:21:46;8.40;;;4.50;;
66886;SDS011;67239;51.680;5.976;2023-08-17T09:24:16;9.23;;;4.45;;
66886;SDS011;67239;51.680;5.976;2023-08-17T09:26:43;7.35;;;4.43;;
66886;SDS011;67239;51.680;5.976;2023-08-17T09:29:18;9.68;;;4.30;;
66886;SDS011;67239;51.680;5.976;2023-08-17T09:31:47;9.23;;;4.68;;
66886;SDS011;67239;51.680;5.976;2023-08-17T09:34:14;9.25;;;4.15;;
66886;SDS011;67239;51.680;5.976;2023-08-17T09:36:45;9.13;;;3.90;;
66886;SDS011;67239;51.680;5.976;2023-08-17T09:39:16;11.43;;;4.80;;
66886;SDS011;67239;51.680;5.976;2023-08-17T09:41:44;9.85;;;4.60;;
66886;SDS011;67239;51.680;5.976;2023-08-17T09:44:12;11.48;;;4.50;;
66886;SDS011;67239;51.680;5.976;2023-08-17T09:46:42;10.57;;;4.63;;
66886;SDS011;67239;51.680;5.976;2023-08-17T09:49:10;8.20;;;3.47;;
66886;SDS011;67239;51.680;5.976;2023-08-17T09:51:38;9.27;;;4.10;;
66886;SDS011;67239;51.680;5.976;2023-08-17T09:54:17;8.35;;;4.18;;
66886;SDS011;67239;51.680;5.976;2023-08-17T09:56:50;10.50;;;3.78;;
66886;SDS011;67239;51.680;5.976;2023-08-17T09:59:19;7.03;;;3.78;;
66886;SDS011;67239;51.680;5.976;2023-08-17T10:01:48;6.95;;;3.80;;
66886;SDS011;67239;51.680;5.976;2023-08-17T10:04:22;10.20;;;4.13;;
66886;SDS011;67239;51.680;5.976;2023-08-17T10:06:58;9.75;;;4.57;;
66886;SDS011;67239;51.680;5.976;2023-08-17T10:09:34;6.82;;;3.47;;
66886;SDS011;67239;51.680;5.976;2023-08-17T10:12:16;9.93;;;3.75;;
66886;SDS011;67239;51.680;5.976;2023-08-17T10:14:49;7.53;;;4.03;;
66886;SDS011;67239;51.680;5.976;2023-08-17T10:17:28;7.97;;;4.00;;
66886;SDS011;67239;51.680;5.976;2023-08-17T10:20:06;7.25;;;3.90;;
66886;SDS011;67239;51.680;5.976;2023-08-17T10:22:39;10.43;;;4.05;;
66886;SDS011;67239;51.680;5.976;2023-08-17T10:25:18;6.78;;;3.45;;
66886;SDS011;67239;51.680;5.976;2023-08-17T10:27:51;8.35;;;4.10;;
66886;SDS011;67239;51.680;5.976;2023-08-17T10:30:25;7.35;;;3.97;;
66886;SDS011;67239;51.680;5.976;2023-08-17T10:32:54;9.75;;;3.97;;
66886;SDS011;67239;51.680;5.976;2023-08-17T10:35:22;9.80;;;3.90;;
66886;SDS011;67239;51.680;5.976;2023-08-17T10:37:50;8.55;;;4.32;;
66886;SDS011;67239;51.680;5.976;2023-08-17T10:40:24;10.02;;;4.20;;
66886;SDS011;67239;51.680;5.976;2023-08-17T10:42:54;7.57;;;4.35;;
66886;SDS011;67239;51.680;5.976;2023-08-17T10:45:29;9.32;;;5.13;;
66886;SDS011;67239;51.680;5.976;2023-08-17T10:50:32;8.40;;;4.63;;
66886;SDS011;67239;51.680;5.976;2023-08-17T10:53:03;7.68;;;4.93;;
66886;SDS011;67239;51.680;5.976;2023-08-17T10:55:36;10.30;;;5.47;;
66886;SDS011;67239;51.680;5.976;2023-08-17T10:58:10;9.88;;;5.15;;
66886;SDS011;67239;51.680;5.976;2023-08-17T11:00:42;9.40;;;5.07;;
66886;SDS011;67239;51.680;5.976;2023-08-17T11:03:18;9.38;;;4.95;;
66886;SDS011;67239;51.680;5.976;2023-08-17T11:05:48;10.95;;;4.88;;
66886;SDS011;67239;51.680;5.976;2023-08-17T11:08:23;8.98;;;4.93;;
66886;SDS011;67239;51.680;5.976;2023-08-17T11:10:58;11.70;;;5.20;;
66886;SDS011;67239;51.680;5.976;2023-08-17T11:13:34;10.10;;;4.90;;
66886;SDS011;67239;51.680;5.976;2023-08-17T11:16:04;9.88;;;4.97;;
66886;SDS011;67239;51.680;5.976;2023-08-17T11:18:33;12.88;;;4.57;;
66886;SDS011;67239;51.680;5.976;2023-08-17T11:21:02;8.82;;;5.10;;
66886;SDS011;67239;51.680;5.976;2023-08-17T11:23:31;7.93;;;4.72;;
66886;SDS011;67239;51.680;5.976;2023-08-17T11:26:01;8.65;;;5.18;;
66886;SDS011;67239;51.680;5.976;2023-08-17T11:28:32;7.72;;;5.00;;
66886;SDS011;67239;51.680;5.976;2023-08-17T11:31:09;9.77;;;5.07;;
66886;SDS011;67239;51.680;5.976;2023-08-17T11:33:39;7.50;;;4.90;;
66886;SDS011;67239;51.680;5.976;2023-08-17T11:36:07;9.25;;;4.70;;
66886;SDS011;67239;51.680;5.976;2023-08-17T11:38:37;10.85;;;5.20;;
66886;SDS011;67239;51.680;5.976;2023-08-17T11:41:10;10.23;;;5.68;;
66886;SDS011;67239;51.680;5.976;2023-08-17T11:43:42;14.13;;;5.80;;
66886;SDS011;67239;51.680;5.976;2023-08-17T11:46:09;12.90;;;5.75;;
66886;SDS011;67239;51.680;5.976;2023-08-17T11:48:37;10.77;;;5.30;;
66886;SDS011;67239;51.680;5.976;2023-08-17T11:51:04;11.15;;;5.50;;
66886;SDS011;67239;51.680;5.976;2023-08-17T11:53:37;12.57;;;6.10;;
66886;SDS011;67239;51.680;5.976;2023-08-17T11:56:08;12.50;;;5.63;;
66886;SDS011;67239;51.680;5.976;2023-08-17T11:58:43;11.25;;;5.80;;
66886;SDS011;67239;51.680;5.976;2023-08-17T12:01:13;10.32;;;5.80;;
66886;SDS011;67239;51.680;5.976;2023-08-17T12:03:43;9.73;;;5.05;;
66886;SDS011;67239;51.680;5.976;2023-08-17T12:06:11;9.20;;;5.32;;
66886;SDS011;67239;51.680;5.976;2023-08-17T12:08:43;10.52;;;5.50;;
66886;SDS011;67239;51.680;5.976;2023-08-17T12:11:15;11.80;;;5.68;;
66886;SDS011;67239;51.680;5.976;2023-08-17T12:13:51;9.82;;;5.82;;
66886;SDS011;67239;51.680;5.976;2023-08-17T12:16:20;9.60;;;5.55;;
66886;SDS011;67239;51.680;5.976;2023-08-17T12:18:50;8.80;;;5.55;;
66886;SDS011;67239;51.680;5.976;2023-08-17T12:21:22;8.77;;;5.32;;
66886;SDS011;67239;51.680;5.976;2023-08-17T12:23:51;9.75;;;5.50;;
66886;SDS011;67239;51.680;5.976;2023-08-17T12:26:19;9.57;;;5.63;;
66886;SDS011;67239;51.680;5.976;2023-08-17T12:28:48;7.80;;;5.80;;
66886;SDS011;67239;51.680;5.976;2023-08-17T12:31:20;10.40;;;5.95;;
66886;SDS011;67239;51.680;5.976;2023-08-17T12:33:51;12.00;;;6.07;;
66886;SDS011;67239;51.680;5.976;2023-08-17T12:36:19;8.80;;;5.85;;
66886;SDS011;67239;51.680;5.976;2023-08-17T12:38:48;10.15;;;6.53;;
66886;SDS011;67239;51.680;5.976;2023-08-17T12:41:15;9.85;;;6.25;;
66886;SDS011;67239;51.680;5.976;2023-08-17T12:43:44;8.23;;;5.82;;
66886;SDS011;67239;51.680;5.976;2023-08-17T12:46:11;9.32;;;6.03;;
66886;SDS011;67239;51.680;5.976;2023-08-17T12:48:38;9.15;;;6.50;;
66886;SDS011;67239;51.680;5.976;2023-08-17T12:51:06;9.77;;;6.30;;
66886;SDS011;67239;51.680;5.976;2023-08-17T12:53:33;8.85;;;6.00;;
66886;SDS011;67239;51.680;5.976;2023-08-17T12:56:00;11.80;;;6.30;;
66886;SDS011;67239;51.680;5.976;2023-08-17T12:58:28;9.30;;;5.47;;
66886;SDS011;67239;51.680;5.976;2023-08-17T13:00:55;7.55;;;5.43;;
66886;SDS011;67239;51.680;5.976;2023-08-17T13:03:22;10.68;;;6.00;;
66886;SDS011;67239;51.680;5.976;2023-08-17T13:05:49;7.78;;;5.50;;
66886;SDS011;67239;51.680;5.976;2023-08-17T13:08:17;10.40;;;5.57;;
66886;SDS011;67239;51.680;5.976;2023-08-17T13:10:44;8.02;;;6.03;;
66886;SDS011;67239;51.680;5.976;2023-08-17T13:13:11;9.98;;;5.60;;
66886;SDS011;67239;51.680;5.976;2023-08-17T13:15:39;9.30;;;5.65;;
66886;SDS011;67239;51.680;5.976;2023-08-17T13:18:06;10.48;;;5.90;;
66886;SDS011;67239;51.680;5.976;2023-08-17T13:20:33;8.95;;;6.28;;
66886;SDS011;67239;51.680;5.976;2023-08-17T13:23:00;8.27;;;6.10;;
66886;SDS011;67239;51.680;5.976;2023-08-17T13:25:28;9.93;;;6.72;;
66886;SDS011;67239;51.680;5.976;2023-08-17T13:27:55;9.65;;;6.50;;
66886;SDS011;67239;51.680;5.976;2023-08-17T13:30:22;10.82;;;5.70;;
66886;SDS011;67239;51.680;5.976;2023-08-17T13:32:50;9.35;;;5.93;;
66886;SDS011;67239;51.680;5.976;2023-08-17T13:35:18;8.48;;;6.18;;
66886;SDS011;67239;51.680;5.976;2023-08-17T13:37:45;10.52;;;6.88;;
66886;SDS011;67239;51.680;5.976;2023-08-17T13:40:17;10.85;;;6.70;;
66886;SDS011;67239;51.680;5.976;2023-08-17T13:42:44;9.80;;;6.78;;
66886;SDS011;67239;51.680;5.976;2023-08-17T13:45:11;9.85;;;6.38;;
66886;SDS011;67239;51.680;5.976;2023-08-17T13:47:38;10.50;;;6.78;;
66886;SDS011;67239;51.680;5.976;2023-08-17T13:50:05;12.93;;;6.85;;
66886;SDS011;67239;51.680;5.976;2023-08-17T13:52:33;10.93;;;6.60;;
66886;SDS011;67239;51.680;5.976;2023-08-17T13:55:00;10.15;;;6.55;;
66886;SDS011;67239;51.680;5.976;2023-08-17T13:57:27;9.45;;;6.88;;
66886;SDS011;67239;51.680;5.976;2023-08-17T13:59:54;10.93;;;7.18;;
66886;SDS011;67239;51.680;5.976;2023-08-17T14:02:22;11.35;;;6.95;;
66886;SDS011;67239;51.680;5.976;2023-08-17T14:04:49;11.73;;;7.70;;
66886;SDS011;67239;51.680;5.976;2023-08-17T14:07:16;12.35;;;7.15;;
66886;SDS011;67239;51.680;5.976;2023-08-17T14:09:43;11.00;;;6.95;;
66886;SDS011;67239;51.680;5.976;2023-08-17T14:12:30;11.05;;;6.97;;
66886;SDS011;67239;51.680;5.976;2023-08-17T14:14:58;10.15;;;7.30;;
66886;SDS011;67239;51.680;5.976;2023-08-17T14:17:25;9.40;;;7.30;;
66886;SDS011;67239;51.680;5.976;2023-08-17T14:19:52;9.93;;;6.90;;
66886;SDS011;67239;51.680;5.976;2023-08-17T14:22:19;10.25;;;7.15;;
66886;SDS011;67239;51.680;5.976;2023-08-17T14:24:47;10.90;;;7.15;;
66886;SDS011;67239;51.680;5.976;2023-08-17T14:27:14;10.35;;;7.00;;
66886;SDS011;67239;51.680;5.976;2023-08-17T14:29:41;8.60;;;6.80;;
66886;SDS011;67239;51.680;5.976;2023-08-17T14:32:14;13.23;;;7.22;;
66886;SDS011;67239;51.680;5.976;2023-08-17T14:34:41;10.25;;;6.57;;
66886;SDS011;67239;51.680;5.976;2023-08-17T14:37:08;11.27;;;7.30;;
66886;SDS011;67239;51.680;5.976;2023-08-17T14:39:35;10.63;;;6.85;;
66886;SDS011;67239;51.680;5.976;2023-08-17T14:42:03;9.32;;;7.15;;
66886;SDS011;67239;51.680;5.976;2023-08-17T14:44:32;8.13;;;6.72;;
66886;SDS011;67239;51.680;5.976;2023-08-17T14:46:59;9.05;;;6.90;;
66886;SDS011;67239;51.680;5.976;2023-08-17T14:49:26;8.55;;;6.88;;
66886;SDS011;67239;51.680;5.976;2023-08-17T14:51:53;9.57;;;7.00;;
66886;SDS011;67239;51.680;5.976;2023-08-17T14:54:20;9.25;;;7.35;;
66886;SDS011;67239;51.680;5.976;2023-08-17T14:56:47;10.00;;;7.22;;
66886;SDS011;67239;51.680;5.976;2023-08-17T14:59:14;11.40;;;7.63;;